createdAt,value
2019-04-04T00:00:39.139Z,8.50
2019-04-04T00:03:12.768Z,8.63
2019-04-04T00:05:46.452Z,8.40
2019-04-04T00:08:20.148Z,8.10
2019-04-04T00:10:53.875Z,8.07
2019-04-04T00:13:27.497Z,8.13
2019-04-04T00:16:01.236Z,8.57
2019-04-04T00:18:34.929Z,9.17
2019-04-04T00:21:08.660Z,9.30
2019-04-04T00:23:42.285Z,9.33
2019-04-04T00:26:15.934Z,9.43
2019-04-04T00:28:49.593Z,9.17
2019-04-04T00:31:23.288Z,9.50
2019-04-04T00:33:56.952Z,9.80
2019-04-04T00:36:33.822Z,9.10
2019-04-04T00:39:09.482Z,9.80
2019-04-04T00:41:44.954Z,8.77
2019-04-04T00:44:19.093Z,8.90
2019-04-04T00:46:52.842Z,9.20
2019-04-04T00:49:26.537Z,8.63
2019-04-04T00:52:00.214Z,8.80
2019-04-04T00:54:33.897Z,9.70
2019-04-04T00:57:07.563Z,10.23
2019-04-04T00:59:41.061Z,12.30
2019-04-04T01:02:14.715Z,10.13
2019-04-04T01:04:48.455Z,8.97
2019-04-04T01:07:22.015Z,10.07
2019-04-04T01:09:56.216Z,10.97
2019-04-04T01:12:29.844Z,12.80
2019-04-04T01:15:03.996Z,14.77
2019-04-04T01:17:37.695Z,10.50
2019-04-04T01:20:11.956Z,10.17
2019-04-04T01:22:45.690Z,9.60
2019-04-04T01:25:19.379Z,9.90
2019-04-04T01:27:53.086Z,9.37
2019-04-04T01:30:26.742Z,9.43
2019-04-04T01:33:03.477Z,8.90
2019-04-04T01:35:36.359Z,9.03
2019-04-04T01:38:09.988Z,8.60
2019-04-04T01:40:43.652Z,9.23
2019-04-04T01:43:17.355Z,10.20
2019-04-04T01:45:51.087Z,8.40
2019-04-04T01:48:24.702Z,9.17
2019-04-04T01:50:58.421Z,8.83
2019-04-04T01:53:31.965Z,9.73
2019-04-04T01:56:06.803Z,9.33
2019-04-04T01:58:41.742Z,8.90
2019-04-04T02:01:16.633Z,8.37
2019-04-04T02:03:51.830Z,8.23
2019-04-04T02:06:28.383Z,8.17
2019-04-04T02:09:02.855Z,7.97
2019-04-04T02:11:37.616Z,8.30
2019-04-04T02:14:11.879Z,8.17
2019-04-04T02:16:50.775Z,7.93
2019-04-04T02:19:24.550Z,9.20
2019-04-04T02:21:57.894Z,8.50
2019-04-04T02:24:32.436Z,8.53
2019-04-04T02:27:06.945Z,8.93
2019-04-04T02:29:41.838Z,8.73
2019-04-04T02:32:17.805Z,8.70
2019-04-04T02:34:51.513Z,7.53
2019-04-04T02:37:25.601Z,8.47
2019-04-04T02:39:59.263Z,8.87
2019-04-04T02:42:33.150Z,9.10
2019-04-04T02:45:07.452Z,8.73
2019-04-04T02:47:41.205Z,9.03
2019-04-04T02:50:14.882Z,9.17
2019-04-04T02:52:48.539Z,9.77
2019-04-04T02:55:22.198Z,9.50
2019-04-04T02:57:55.891Z,9.30
2019-04-04T03:00:29.623Z,9.47
2019-04-04T03:03:05.486Z,8.13
2019-04-04T03:05:38.706Z,7.93
2019-04-04T03:08:12.421Z,8.23
2019-04-04T03:10:49.237Z,7.13
2019-04-04T03:13:22.341Z,7.50
2019-04-04T03:15:55.994Z,7.30
2019-04-04T03:18:29.681Z,7.73
2019-04-04T03:21:03.404Z,6.80
2019-04-04T03:23:37.119Z,6.87
2019-04-04T03:26:10.818Z,6.67
2019-04-04T03:28:44.443Z,7.20
2019-04-04T03:31:18.173Z,7.83
2019-04-04T03:33:51.799Z,7.37
2019-04-04T03:36:25.526Z,6.80
2019-04-04T03:38:59.078Z,7.60
2019-04-04T03:41:35.858Z,7.30
2019-04-04T03:44:08.002Z,6.60
2019-04-04T03:46:41.647Z,7.10
2019-04-04T03:49:15.271Z,5.77
2019-04-04T03:51:48.995Z,5.90
2019-04-04T03:54:24.196Z,5.93
2019-04-04T03:56:57.853Z,6.70
2019-04-04T03:59:32.521Z,6.90
2019-04-04T04:02:06.929Z,7.10
2019-04-04T04:04:40.610Z,7.73
2019-04-04T04:07:15.320Z,7.30
2019-04-04T04:09:49.192Z,7.50
2019-04-04T04:12:22.773Z,7.93
2019-04-04T04:14:56.483Z,8.73
2019-04-04T04:17:30.202Z,8.67
2019-04-04T04:20:04.932Z,8.80
2019-04-04T04:22:38.595Z,9.13
2019-04-04T04:25:12.713Z,8.43
2019-04-04T04:27:48.479Z,9.60
2019-04-04T04:30:22.141Z,11.30
2019-04-04T04:32:57.274Z,10.17
2019-04-04T04:35:31.237Z,10.47
2019-04-04T04:38:04.896Z,10.17
2019-04-04T04:40:38.591Z,10.43
2019-04-04T04:43:15.269Z,9.83
2019-04-04T04:45:47.541Z,10.20
2019-04-04T04:48:21.176Z,11.13
2019-04-04T04:50:54.916Z,10.50
2019-04-04T04:53:28.608Z,10.13
2019-04-04T04:56:02.745Z,10.50
2019-04-04T04:58:36.424Z,11.00
2019-04-04T05:01:10.143Z,12.80
2019-04-04T05:03:43.821Z,11.07
2019-04-04T05:06:17.548Z,10.83
2019-04-04T05:08:51.193Z,11.70
2019-04-04T05:11:24.919Z,11.13
2019-04-04T05:13:58.848Z,11.80
2019-04-04T05:16:32.647Z,11.73
2019-04-04T05:19:06.359Z,11.77
2019-04-04T05:21:40.022Z,10.57
2019-04-04T05:24:13.651Z,10.77
2019-04-04T05:26:47.320Z,11.33
2019-04-04T05:29:21.059Z,11.23
2019-04-04T05:31:54.808Z,11.13
2019-04-04T05:34:30.388Z,10.60
2019-04-04T05:37:05.093Z,10.77
2019-04-04T05:39:39.260Z,10.50
2019-04-04T05:42:13.055Z,9.97
2019-04-04T05:44:46.692Z,10.40
2019-04-04T05:47:22.866Z,10.17
2019-04-04T05:49:55.729Z,11.50
2019-04-04T05:52:30.464Z,11.67
2019-04-04T05:55:05.165Z,11.17
2019-04-04T05:57:38.827Z,11.53
2019-04-04T06:00:13.907Z,10.70
2019-04-04T06:02:47.636Z,11.00
2019-04-04T06:05:21.297Z,11.60
2019-04-04T06:07:55.017Z,10.93
2019-04-04T06:10:28.767Z,11.33
2019-04-04T06:13:02.434Z,12.43
2019-04-04T06:15:36.068Z,11.77
2019-04-04T06:18:11.815Z,10.93
2019-04-04T06:20:48.325Z,10.03
2019-04-04T06:23:20.674Z,11.17
2019-04-04T06:25:54.369Z,10.47
2019-04-04T06:28:28.081Z,11.07
2019-04-04T06:31:01.740Z,11.37
2019-04-04T06:33:35.963Z,11.03
2019-04-04T06:36:09.642Z,11.67
2019-04-04T06:38:43.304Z,11.87
2019-04-04T06:41:16.971Z,11.80
2019-04-04T06:43:50.705Z,11.40
2019-04-04T06:46:24.380Z,11.93
2019-04-04T06:48:58.015Z,11.90
2019-04-04T06:51:31.744Z,13.13
2019-04-04T06:54:05.443Z,12.73
2019-04-04T06:56:39.191Z,13.13
2019-04-04T06:59:12.909Z,13.33
2019-04-04T07:01:46.619Z,12.60
2019-04-04T07:04:20.343Z,13.93
2019-04-04T07:06:54.008Z,15.23
2019-04-04T07:09:27.648Z,16.20
2019-04-04T07:12:01.314Z,15.87
2019-04-04T07:14:45.089Z,18.80
2019-04-04T07:17:10.380Z,16.20
2019-04-04T07:19:45.925Z,15.57
2019-04-04T07:22:20.617Z,16.33
2019-04-04T07:24:54.429Z,16.63
2019-04-04T07:27:28.519Z,18.20
2019-04-04T07:30:02.013Z,20.47
2019-04-04T07:32:35.676Z,23.30
2019-04-04T07:35:09.303Z,21.80
2019-04-04T07:37:43.035Z,19.73
2019-04-04T07:40:16.736Z,21.77
2019-04-04T07:42:50.388Z,21.57
2019-04-04T07:45:26.127Z,27.17
2019-04-04T07:47:59.428Z,24.63
2019-04-04T07:50:33.154Z,24.03
2019-04-04T07:53:06.865Z,20.63
2019-04-04T07:55:42.196Z,19.60
2019-04-04T07:58:16.019Z,19.50
2019-04-04T08:00:49.785Z,19.97
2019-04-04T08:03:23.550Z,20.77
2019-04-04T08:05:57.289Z,20.13
2019-04-04T08:08:30.864Z,19.70
2019-04-04T08:11:04.640Z,24.80
2019-04-04T08:13:38.375Z,21.53
2019-04-04T08:16:12.035Z,20.47
2019-04-04T08:18:45.731Z,20.00
2019-04-04T08:21:19.391Z,20.20
2019-04-04T08:23:53.088Z,19.70
2019-04-04T08:26:26.835Z,17.17
2019-04-04T08:29:00.536Z,17.77
2019-04-04T08:31:34.207Z,18.03
2019-04-04T08:34:07.853Z,15.73
2019-04-04T08:36:41.575Z,16.30
2019-04-04T08:39:15.173Z,14.17
2019-04-04T08:41:48.846Z,14.77
2019-04-04T08:44:22.551Z,16.87
2019-04-04T08:46:56.280Z,16.17
2019-04-04T08:49:29.935Z,16.60
2019-04-04T08:52:15.867Z,17.07
2019-04-04T08:54:38.887Z,17.00
2019-04-04T08:57:12.514Z,16.70
2019-04-04T08:59:46.236Z,16.97
2019-04-04T09:02:20.150Z,15.80
2019-04-04T09:04:53.898Z,16.13
2019-04-04T09:07:27.520Z,15.63
2019-04-04T09:10:01.180Z,14.97
2019-04-04T09:12:34.971Z,14.53
2019-04-04T09:15:08.932Z,14.63
2019-04-04T09:17:42.627Z,14.73
2019-04-04T09:20:16.593Z,13.83
2019-04-04T09:22:50.298Z,15.37
2019-04-04T09:25:24.022Z,15.47
2019-04-04T09:27:57.653Z,14.83
2019-04-04T09:30:31.313Z,15.60
2019-04-04T09:33:05.019Z,16.13
2019-04-04T09:35:38.671Z,15.00
2019-04-04T09:38:12.349Z,14.30
2019-04-04T09:40:46.056Z,15.17
2019-04-04T09:43:19.919Z,15.73
2019-04-04T09:45:53.658Z,17.07
2019-04-04T09:48:27.323Z,16.90
2019-04-04T09:51:01.031Z,16.27
2019-04-04T09:53:34.760Z,14.73
2019-04-04T09:56:08.414Z,17.47
2019-04-04T09:58:42.043Z,16.93
2019-04-04T10:01:15.700Z,15.97
2019-04-04T10:03:49.409Z,15.73
2019-04-04T10:06:23.002Z,15.60
2019-04-04T10:08:56.698Z,15.03
2019-04-04T10:11:30.417Z,16.17
2019-04-04T10:14:04.353Z,18.13
2019-04-04T10:16:38.098Z,18.20
2019-04-04T10:19:11.722Z,18.37
2019-04-04T10:21:45.383Z,17.43
2019-04-04T10:24:18.945Z,17.93
2019-04-04T10:26:52.678Z,18.43
2019-04-04T10:29:26.345Z,18.60
2019-04-04T10:32:00.114Z,17.83
2019-04-04T10:34:33.779Z,16.33
2019-04-04T10:37:07.416Z,17.50
2019-04-04T10:39:41.163Z,16.17
2019-04-04T10:42:14.913Z,17.57
2019-04-04T10:44:48.536Z,17.60
2019-04-04T10:47:22.132Z,16.73
2019-04-04T10:49:58.441Z,17.57
2019-04-04T10:52:31.090Z,17.33
2019-04-04T10:55:06.516Z,17.57
2019-04-04T10:57:40.173Z,17.63
2019-04-04T11:00:15.981Z,19.80
2019-04-04T11:02:49.971Z,18.63
2019-04-04T11:05:23.627Z,20.67
2019-04-04T11:08:00.262Z,20.37
2019-04-04T11:10:33.991Z,20.77
2019-04-04T11:13:08.204Z,21.00
2019-04-04T11:15:42.038Z,19.93
2019-04-04T11:18:15.665Z,20.13
2019-04-04T11:20:49.316Z,21.00
2019-04-04T11:23:22.936Z,20.37
2019-04-04T11:25:56.594Z,20.37
2019-04-04T11:28:30.305Z,18.67
2019-04-04T11:31:04.095Z,19.20
2019-04-04T11:33:37.726Z,19.63
2019-04-04T11:36:11.464Z,19.77
2019-04-04T11:38:45.036Z,19.83
2019-04-04T11:41:18.755Z,20.00
2019-04-04T11:43:52.381Z,20.23
2019-04-04T11:46:26.027Z,20.33
2019-04-04T11:48:59.671Z,19.80
2019-04-04T11:51:33.403Z,19.20
2019-04-04T11:54:06.951Z,19.43
2019-04-04T11:56:40.621Z,19.57
2019-04-04T11:59:14.327Z,19.63
2019-04-04T12:01:49.705Z,20.43
2019-04-04T12:04:23.341Z,19.70
2019-04-04T12:06:56.922Z,19.10
2019-04-04T12:09:30.543Z,19.60
2019-04-04T12:12:04.279Z,20.00
2019-04-04T12:14:37.898Z,19.43
2019-04-04T12:17:11.476Z,20.67
2019-04-04T12:19:45.148Z,20.30
2019-04-04T12:22:18.807Z,19.37
2019-04-04T12:24:53.579Z,20.03
2019-04-04T12:27:27.240Z,20.70
2019-04-04T12:30:00.884Z,20.43
2019-04-04T12:32:34.577Z,19.43
2019-04-04T12:35:08.370Z,18.37
2019-04-04T12:37:42.028Z,19.33
2019-04-04T12:40:20.703Z,20.67
2019-04-04T12:42:51.038Z,19.90
2019-04-04T12:45:24.781Z,19.70
2019-04-04T12:47:58.507Z,20.00
2019-04-04T12:50:32.136Z,19.40
2019-04-04T12:53:05.894Z,19.30
2019-04-04T12:55:39.639Z,20.77
2019-04-04T12:58:13.356Z,20.47
2019-04-04T13:00:46.996Z,19.80
2019-04-04T13:03:22.419Z,21.03
2019-04-04T13:05:56.021Z,21.40
2019-04-04T13:08:30.701Z,20.23
2019-04-04T13:11:04.770Z,20.17
2019-04-04T13:13:39.330Z,19.63
2019-04-04T13:16:13.022Z,19.83
2019-04-04T13:18:46.720Z,20.30
2019-04-04T13:21:21.635Z,19.97
2019-04-04T13:23:55.456Z,21.10
2019-04-04T13:26:29.104Z,20.60
2019-04-04T13:29:02.740Z,20.23
2019-04-04T13:31:36.403Z,20.30
2019-04-04T13:34:10.109Z,21.77
2019-04-04T13:36:43.778Z,21.20
2019-04-04T13:39:17.472Z,22.23
2019-04-04T13:41:51.143Z,20.50
2019-04-04T13:44:24.851Z,19.87
2019-04-04T13:46:58.582Z,20.30
2019-04-04T13:49:32.212Z,21.90
2019-04-04T13:52:05.939Z,21.80
2019-04-04T13:54:39.647Z,21.27
2019-04-04T13:57:13.964Z,21.33
2019-04-04T13:59:47.660Z,20.17
2019-04-04T14:02:21.347Z,21.17
2019-04-04T14:04:55.710Z,20.57
2019-04-04T14:07:29.575Z,22.07
2019-04-04T14:10:04.197Z,22.20
2019-04-04T14:12:37.858Z,22.57
2019-04-04T14:15:12.133Z,22.20
2019-04-04T14:17:45.851Z,23.33
2019-04-04T14:20:19.515Z,23.30
2019-04-04T14:22:53.257Z,22.93
2019-04-04T14:25:29.280Z,22.13
2019-04-04T14:28:02.340Z,22.00
2019-04-04T14:30:36.031Z,21.80
2019-04-04T14:33:09.682Z,21.70
2019-04-04T14:35:43.377Z,21.13
2019-04-04T14:38:17.027Z,20.43
2019-04-04T14:40:50.658Z,21.30
2019-04-04T14:43:24.387Z,22.00
2019-04-04T14:45:58.083Z,22.20
2019-04-04T14:48:31.745Z,22.40
2019-04-04T14:51:05.524Z,23.83
2019-04-04T14:53:39.188Z,23.77
2019-04-04T14:56:12.885Z,22.40
2019-04-04T14:58:46.620Z,22.87
2019-04-04T15:01:20.364Z,24.03
2019-04-04T15:03:53.957Z,24.43
2019-04-04T15:06:27.612Z,26.03
2019-04-04T15:09:01.307Z,25.23
2019-04-04T15:11:34.935Z,25.37
2019-04-04T15:14:09.240Z,26.83
2019-04-04T15:16:42.915Z,25.27
2019-04-04T15:19:16.506Z,26.00
2019-04-04T15:21:50.058Z,27.57
2019-04-04T15:24:23.722Z,27.47
2019-04-04T15:26:57.435Z,26.63
2019-04-04T15:29:30.963Z,28.97
2019-04-04T15:32:04.771Z,26.40
2019-04-04T15:34:38.670Z,25.57
2019-04-04T15:37:12.403Z,27.53
2019-04-04T15:39:46.326Z,27.33
2019-04-04T15:42:21.604Z,32.27
2019-04-04T15:44:55.327Z,33.93
2019-04-04T15:47:28.952Z,33.00
2019-04-04T15:50:02.531Z,30.17
2019-04-04T15:52:36.244Z,33.53
2019-04-04T15:55:09.968Z,35.63
2019-04-04T15:57:43.590Z,30.73
2019-04-04T16:00:17.484Z,28.80
2019-04-04T16:02:51.176Z,30.70
2019-04-04T16:05:24.909Z,31.63
2019-04-04T16:07:58.464Z,32.20
2019-04-04T16:10:32.187Z,33.30
2019-04-04T16:13:05.818Z,33.40
2019-04-04T16:15:39.551Z,31.60
2019-04-04T16:18:13.170Z,31.77
2019-04-04T16:20:46.831Z,34.17
2019-04-04T16:23:20.464Z,34.33
2019-04-04T16:25:54.259Z,34.43
2019-04-04T16:28:27.852Z,34.73
2019-04-04T16:31:01.713Z,37.40
2019-04-04T16:33:35.317Z,35.47
2019-04-04T16:36:09.010Z,35.87
2019-04-04T16:38:42.743Z,37.10
2019-04-04T16:41:16.407Z,37.47
2019-04-04T16:43:49.962Z,37.03
2019-04-04T16:46:23.625Z,34.93
2019-04-04T16:48:57.321Z,35.87
2019-04-04T16:51:30.996Z,36.30
2019-04-04T16:54:04.816Z,36.30
2019-04-04T16:56:38.432Z,41.40
2019-04-04T16:59:12.051Z,42.80
2019-04-04T17:01:45.791Z,40.53
2019-04-04T17:04:19.491Z,43.13
2019-04-04T17:06:54.703Z,45.80
2019-04-04T17:09:28.675Z,45.73
2019-04-04T17:12:14.186Z,45.00
2019-04-04T17:14:38.318Z,44.97
2019-04-04T17:17:11.941Z,49.93
2019-04-04T17:19:45.683Z,47.33
2019-04-04T17:22:19.316Z,45.90
2019-04-04T17:24:53.066Z,48.43
2019-04-04T17:27:26.867Z,47.70
2019-04-04T17:30:00.616Z,53.50
2019-04-04T17:32:34.303Z,51.67
2019-04-04T17:35:08.655Z,53.83
2019-04-04T17:37:42.467Z,58.77
2019-04-04T17:40:16.395Z,55.20
2019-04-04T17:42:50.019Z,65.00
2019-04-04T17:45:24.071Z,57.93
2019-04-04T17:47:58.075Z,69.27
2019-04-04T17:50:32.342Z,59.47
2019-04-04T17:53:06.453Z,57.63
2019-04-04T17:55:40.232Z,59.63
2019-04-04T17:58:13.960Z,63.63
2019-04-04T18:00:47.703Z,57.43
2019-04-04T18:03:21.410Z,79.37
2019-04-04T18:05:55.151Z,62.70
2019-04-04T18:08:28.935Z,86.53
2019-04-04T18:11:02.673Z,77.90
2019-04-04T18:13:36.368Z,87.83
2019-04-04T18:16:10.040Z,62.00
2019-04-04T18:18:43.683Z,87.77
2019-04-04T18:21:17.336Z,97.60
2019-04-04T18:23:50.968Z,93.47
2019-04-04T18:26:24.709Z,72.50
2019-04-04T18:28:58.411Z,70.33
2019-04-04T18:31:32.005Z,64.80
2019-04-04T18:34:08.121Z,77.03
2019-04-04T18:36:41.468Z,70.10
2019-04-04T18:39:15.211Z,79.17
2019-04-04T18:41:48.983Z,72.80
2019-04-04T18:44:22.545Z,78.40
2019-04-04T18:46:56.281Z,77.60
2019-04-04T18:49:30.000Z,68.30
2019-04-04T18:52:03.728Z,84.67
2019-04-04T18:54:37.436Z,86.73
2019-04-04T18:57:13.162Z,82.57
2019-04-04T18:59:46.641Z,88.17
2019-04-04T19:02:20.296Z,92.23
2019-04-04T19:04:53.942Z,94.27
2019-04-04T19:07:38.674Z,74.37
2019-04-04T19:10:03.543Z,84.93
2019-04-04T19:12:37.271Z,74.20
2019-04-04T19:15:12.160Z,84.13
2019-04-04T19:17:45.898Z,86.47
2019-04-04T19:20:19.680Z,76.77
2019-04-04T19:22:54.648Z,82.30
2019-04-04T19:25:28.377Z,64.70
2019-04-04T19:28:02.001Z,71.70
2019-04-04T19:30:35.813Z,97.37
2019-04-04T19:33:09.516Z,60.57
2019-04-04T19:35:45.215Z,83.50
2019-04-04T19:38:18.892Z,101.97
2019-04-04T19:40:53.006Z,82.00
2019-04-04T19:43:26.745Z,82.83
2019-04-04T19:46:00.552Z,77.57
2019-04-04T19:48:34.255Z,79.10
2019-04-04T19:51:07.918Z,68.40
2019-04-04T19:53:41.623Z,90.30
2019-04-04T19:56:15.294Z,68.93
2019-04-04T19:58:49.002Z,73.67
2019-04-04T20:01:25.519Z,82.23
2019-04-04T20:03:58.110Z,74.57
2019-04-04T20:06:31.848Z,85.17
2019-04-04T20:09:07.031Z,94.77
2019-04-04T20:11:40.772Z,70.90
2019-04-04T20:14:14.408Z,72.30
2019-04-04T20:16:48.682Z,64.70
2019-04-04T20:19:22.416Z,66.67
2019-04-04T20:21:56.568Z,71.30
2019-04-04T20:24:30.509Z,69.83
2019-04-04T20:27:04.140Z,90.23
2019-04-04T20:29:37.811Z,81.20
2019-04-04T20:32:11.545Z,71.00
2019-04-04T20:34:45.195Z,83.20
2019-04-04T20:37:18.860Z,115.33
2019-04-04T20:39:52.563Z,80.37
2019-04-04T20:42:26.308Z,85.03
2019-04-04T20:45:00.006Z,99.17
2019-04-04T20:47:34.012Z,74.37
2019-04-04T20:50:08.119Z,94.57
2019-04-04T20:52:41.784Z,86.07
2019-04-04T20:55:15.497Z,95.67
2019-04-04T20:57:49.240Z,77.17
2019-04-04T21:00:22.872Z,75.80
2019-04-04T21:02:56.539Z,81.23
2019-04-04T21:05:30.175Z,99.80
2019-04-04T21:08:03.901Z,83.50
2019-04-04T21:10:37.541Z,91.57
2019-04-04T21:13:11.279Z,69.73
2019-04-04T21:15:44.987Z,80.30
2019-04-04T21:18:18.643Z,80.77
2019-04-04T21:20:52.344Z,73.00
2019-04-04T21:23:26.011Z,85.83
2019-04-04T21:25:59.642Z,73.37
2019-04-04T21:28:33.372Z,70.17
2019-04-04T21:31:07.068Z,80.30
2019-04-04T21:33:40.727Z,75.27
2019-04-04T21:36:14.359Z,86.03
2019-04-04T21:38:48.082Z,88.50
2019-04-04T21:41:21.791Z,104.90
2019-04-04T21:44:07.901Z,80.17
2019-04-04T21:46:30.816Z,89.47
2019-04-04T21:49:04.556Z,83.97
2019-04-04T21:51:38.222Z,90.63
2019-04-04T21:54:11.795Z,73.10
2019-04-04T21:56:45.526Z,66.00
2019-04-04T21:59:19.335Z,70.10
2019-04-04T22:01:52.965Z,94.77
2019-04-04T22:04:26.706Z,66.07
2019-04-04T22:07:00.429Z,98.53
2019-04-04T22:09:34.160Z,77.33
2019-04-04T22:12:07.879Z,73.80
2019-04-04T22:14:41.627Z,83.90
2019-04-04T22:17:15.368Z,65.13
2019-04-04T22:19:48.997Z,71.97
2019-04-04T22:22:22.665Z,66.63
2019-04-04T22:24:56.288Z,80.27
2019-04-04T22:27:30.033Z,51.30
2019-04-04T22:30:05.737Z,72.67
2019-04-04T22:32:39.469Z,67.20
2019-04-04T22:35:13.172Z,86.80
2019-04-04T22:37:46.976Z,68.67
2019-04-04T22:40:20.628Z,75.37
2019-04-04T22:42:54.363Z,60.47
2019-04-04T22:45:28.085Z,58.10
2019-04-04T22:48:01.899Z,58.57
2019-04-04T22:50:35.592Z,64.23
2019-04-04T22:53:09.339Z,59.47
2019-04-04T22:55:42.992Z,73.50
2019-04-04T22:58:27.644Z,60.53
2019-04-04T23:00:51.995Z,69.17
2019-04-04T23:03:26.592Z,52.27
2019-04-04T23:06:00.345Z,78.13
2019-04-04T23:08:33.986Z,56.07
2019-04-04T23:11:07.780Z,56.90
2019-04-04T23:13:41.536Z,80.40
2019-04-04T23:16:15.269Z,62.47
2019-04-04T23:18:48.982Z,87.37
2019-04-04T23:21:22.722Z,77.73
2019-04-04T23:23:56.477Z,60.17
2019-04-04T23:26:30.176Z,70.53
2019-04-04T23:29:03.858Z,66.87
2019-04-04T23:31:37.560Z,83.00
2019-04-04T23:34:11.232Z,92.40
2019-04-04T23:36:44.948Z,79.07
2019-04-04T23:39:18.599Z,80.73
2019-04-04T23:41:52.231Z,90.03
2019-04-04T23:44:25.963Z,95.50
2019-04-04T23:46:59.620Z,86.23
2019-04-04T23:49:33.291Z,56.87
2019-04-04T23:52:06.919Z,50.93
2019-04-04T23:54:40.579Z,75.93
2019-04-04T23:57:14.220Z,75.97
2019-04-04T23:59:47.887Z,70.47
